createdAt,value
2022-08-20T00:00:50.243Z,175
2022-08-20T00:20:50.207Z,178
2022-08-20T00:40:50.210Z,174
2022-08-20T01:00:50.149Z,179
2022-08-20T01:20:50.115Z,169
2022-08-20T01:40:50.089Z,176
2022-08-20T02:00:50.062Z,166
2022-08-20T02:20:50.026Z,178
2022-08-20T02:40:50.000Z,177
2022-08-20T03:00:49.971Z,216
2022-08-20T03:20:51.356Z,207
2022-08-20T03:40:49.913Z,195
2022-08-20T04:00:49.876Z,177
2022-08-20T04:20:49.363Z,191
2022-08-20T04:40:49.810Z,191
2022-08-20T05:00:49.819Z,184
2022-08-20T05:20:49.562Z,185
2022-08-20T05:40:49.733Z,185
2022-08-20T06:00:49.739Z,174
2022-08-20T06:20:49.668Z,180
2022-08-20T06:40:49.640Z,174
2022-08-20T07:00:49.683Z,172
2022-08-20T07:20:49.577Z,198
2022-08-20T07:40:49.545Z,212
2022-08-20T08:00:49.561Z,205
2022-08-20T08:20:49.491Z,215
2022-08-20T08:40:49.676Z,210
2022-08-20T09:00:52.844Z,214
2022-08-20T09:20:49.413Z,212
2022-08-20T09:40:49.364Z,206
2022-08-20T10:00:49.337Z,212
2022-08-20T10:20:49.305Z,206
2022-08-20T10:40:52.305Z,199
2022-08-20T11:00:49.241Z,197
2022-08-20T11:20:49.221Z,196
2022-08-20T11:40:49.192Z,170
2022-08-20T12:00:49.163Z,146
2022-08-20T12:20:50.736Z,168
2022-08-20T12:40:49.108Z,168
2022-08-20T13:00:50.368Z,173
2022-08-20T13:20:48.846Z,168
2022-08-20T13:40:49.120Z,153
2022-08-20T14:00:48.988Z,178
2022-08-20T14:20:48.959Z,176
2022-08-20T14:40:48.933Z,179
2022-08-20T15:00:48.928Z,195
2022-08-20T15:20:48.872Z,197
2022-08-20T15:40:48.826Z,192
2022-08-20T16:00:48.833Z,192
2022-08-20T16:20:48.780Z,178
2022-08-20T16:40:49.577Z,181
2022-08-20T17:00:48.761Z,196
2022-08-20T17:20:48.482Z,193
2022-08-20T17:40:48.648Z,195
2022-08-20T18:00:48.613Z,180
2022-08-20T18:20:48.590Z,172
2022-08-20T18:40:50.023Z,194
2022-08-20T19:00:48.523Z,187
2022-08-20T19:20:48.496Z,186
2022-08-20T19:40:48.465Z,190
2022-08-20T20:00:48.434Z,186
2022-08-20T20:20:50.381Z,185
2022-08-20T20:40:48.397Z,188
2022-08-20T21:00:48.152Z,175
2022-08-20T21:20:48.327Z,177
2022-08-20T21:40:48.296Z,176
2022-08-20T22:00:48.269Z,177
2022-08-20T22:20:48.240Z,167
2022-08-20T22:40:47.705Z,180
2022-08-20T23:00:48.190Z,180
2022-08-20T23:20:48.141Z,184
2022-08-20T23:40:48.116Z,175
